sensor_id;sensor_type;location;lat;lon;timestamp;P1;durP1;ratioP1;P2;durP2;ratioP2
13592;SDS011;6867;50.998;4.250;2024-01-30T00:01:23;10.57;;;6.20;;
13592;SDS011;6867;50.998;4.250;2024-01-30T00:03:51;9.87;;;6.00;;
13592;SDS011;6867;50.998;4.250;2024-01-30T00:06:20;8.80;;;5.90;;
13592;SDS011;6867;50.998;4.250;2024-01-30T00:08:47;12.97;;;6.70;;
13592;SDS011;6867;50.998;4.250;2024-01-30T00:11:15;10.80;;;6.00;;
13592;SDS011;6867;50.998;4.250;2024-01-30T00:13:42;8.60;;;6.13;;
13592;SDS011;6867;50.998;4.250;2024-01-30T00:16:16;8.63;;;5.90;;
13592;SDS011;6867;50.998;4.250;2024-01-30T00:18:46;9.93;;;5.93;;
13592;SDS011;6867;50.998;4.250;2024-01-30T00:21:15;8.43;;;6.13;;
13592;SDS011;6867;50.998;4.250;2024-01-30T00:23:41;8.50;;;6.30;;
13592;SDS011;6867;50.998;4.250;2024-01-30T00:26:08;10.03;;;6.73;;
13592;SDS011;6867;50.998;4.250;2024-01-30T00:28:36;11.17;;;6.63;;
13592;SDS011;6867;50.998;4.250;2024-01-30T00:31:03;10.37;;;6.93;;
13592;SDS011;6867;50.998;4.250;2024-01-30T00:33:30;11.00;;;5.80;;
13592;SDS011;6867;50.998;4.250;2024-01-30T00:35:57;10.10;;;6.33;;
13592;SDS011;6867;50.998;4.250;2024-01-30T00:38:25;9.93;;;6.43;;
13592;SDS011;6867;50.998;4.250;2024-01-30T00:40:52;11.60;;;6.43;;
13592;SDS011;6867;50.998;4.250;2024-01-30T00:43:19;10.07;;;7.17;;
13592;SDS011;6867;50.998;4.250;2024-01-30T00:45:46;9.90;;;6.57;;
13592;SDS011;6867;50.998;4.250;2024-01-30T00:48:13;10.40;;;6.53;;
13592;SDS011;6867;50.998;4.250;2024-01-30T00:50:39;9.77;;;5.97;;
13592;SDS011;6867;50.998;4.250;2024-01-30T00:53:06;11.50;;;7.17;;
13592;SDS011;6867;50.998;4.250;2024-01-30T00:55:34;9.90;;;6.60;;
13592;SDS011;6867;50.998;4.250;2024-01-30T00:58:01;9.77;;;6.67;;
13592;SDS011;6867;50.998;4.250;2024-01-30T01:00:28;8.63;;;6.47;;
13592;SDS011;6867;50.998;4.250;2024-01-30T01:02:57;10.23;;;6.40;;
13592;SDS011;6867;50.998;4.250;2024-01-30T01:05:28;10.20;;;6.40;;
13592;SDS011;6867;50.998;4.250;2024-01-30T01:07:56;11.83;;;7.10;;
13592;SDS011;6867;50.998;4.250;2024-01-30T01:10:25;11.10;;;6.47;;
13592;SDS011;6867;50.998;4.250;2024-01-30T01:12:53;11.77;;;6.80;;
13592;SDS011;6867;50.998;4.250;2024-01-30T01:15:20;10.30;;;6.30;;
13592;SDS011;6867;50.998;4.250;2024-01-30T01:17:47;13.17;;;6.93;;
13592;SDS011;6867;50.998;4.250;2024-01-30T01:20:14;8.47;;;5.87;;
13592;SDS011;6867;50.998;4.250;2024-01-30T01:22:41;12.30;;;7.50;;
13592;SDS011;6867;50.998;4.250;2024-01-30T01:25:08;11.20;;;6.80;;
13592;SDS011;6867;50.998;4.250;2024-01-30T01:27:37;9.37;;;6.40;;
13592;SDS011;6867;50.998;4.250;2024-01-30T01:30:10;8.57;;;6.17;;
13592;SDS011;6867;50.998;4.250;2024-01-30T01:32:43;10.10;;;6.53;;
13592;SDS011;6867;50.998;4.250;2024-01-30T01:35:15;8.93;;;6.63;;
13592;SDS011;6867;50.998;4.250;2024-01-30T01:37:42;10.10;;;6.67;;
13592;SDS011;6867;50.998;4.250;2024-01-30T01:40:09;9.53;;;6.27;;
13592;SDS011;6867;50.998;4.250;2024-01-30T01:42:36;9.63;;;6.80;;
13592;SDS011;6867;50.998;4.250;2024-01-30T01:45:03;11.90;;;6.90;;
13592;SDS011;6867;50.998;4.250;2024-01-30T01:47:32;11.50;;;6.97;;
13592;SDS011;6867;50.998;4.250;2024-01-30T01:49:59;10.10;;;6.50;;
13592;SDS011;6867;50.998;4.250;2024-01-30T01:52:26;10.07;;;6.10;;
13592;SDS011;6867;50.998;4.250;2024-01-30T01:54:53;10.53;;;7.20;;
13592;SDS011;6867;50.998;4.250;2024-01-30T01:57:20;12.47;;;6.57;;
13592;SDS011;6867;50.998;4.250;2024-01-30T01:59:47;11.07;;;5.80;;
13592;SDS011;6867;50.998;4.250;2024-01-30T02:02:14;9.17;;;6.87;;
13592;SDS011;6867;50.998;4.250;2024-01-30T02:04:45;10.27;;;6.73;;
13592;SDS011;6867;50.998;4.250;2024-01-30T02:07:12;11.83;;;6.87;;
13592;SDS011;6867;50.998;4.250;2024-01-30T02:09:39;15.57;;;6.80;;
13592;SDS011;6867;50.998;4.250;2024-01-30T02:12:06;8.73;;;6.23;;
13592;SDS011;6867;50.998;4.250;2024-01-30T02:14:33;12.33;;;7.07;;
13592;SDS011;6867;50.998;4.250;2024-01-30T02:17:11;12.57;;;6.67;;
13592;SDS011;6867;50.998;4.250;2024-01-30T02:19:41;9.40;;;5.73;;
13592;SDS011;6867;50.998;4.250;2024-01-30T02:22:10;11.97;;;6.77;;
13592;SDS011;6867;50.998;4.250;2024-01-30T02:24:37;9.00;;;6.30;;
13592;SDS011;6867;50.998;4.250;2024-01-30T02:27:04;11.00;;;6.77;;
13592;SDS011;6867;50.998;4.250;2024-01-30T02:29:30;11.40;;;6.50;;
13592;SDS011;6867;50.998;4.250;2024-01-30T02:31:57;8.97;;;5.97;;
13592;SDS011;6867;50.998;4.250;2024-01-30T02:34:24;10.60;;;5.97;;
13592;SDS011;6867;50.998;4.250;2024-01-30T02:36:50;10.77;;;6.90;;
13592;SDS011;6867;50.998;4.250;2024-01-30T02:39:22;8.90;;;6.10;;
13592;SDS011;6867;50.998;4.250;2024-01-30T02:41:49;13.87;;;7.37;;
13592;SDS011;6867;50.998;4.250;2024-01-30T02:44:16;12.80;;;7.20;;
13592;SDS011;6867;50.998;4.250;2024-01-30T02:46:42;9.70;;;6.57;;
13592;SDS011;6867;50.998;4.250;2024-01-30T02:49:09;8.90;;;5.90;;
13592;SDS011;6867;50.998;4.250;2024-01-30T02:51:38;9.20;;;6.07;;
13592;SDS011;6867;50.998;4.250;2024-01-30T02:54:08;11.53;;;6.90;;
13592;SDS011;6867;50.998;4.250;2024-01-30T02:56:36;9.07;;;5.67;;
13592;SDS011;6867;50.998;4.250;2024-01-30T02:59:02;12.77;;;6.03;;
13592;SDS011;6867;50.998;4.250;2024-01-30T03:01:31;10.27;;;6.10;;
13592;SDS011;6867;50.998;4.250;2024-01-30T03:03:58;9.10;;;6.20;;
13592;SDS011;6867;50.998;4.250;2024-01-30T03:06:24;16.23;;;6.67;;
13592;SDS011;6867;50.998;4.250;2024-01-30T03:08:51;7.87;;;6.30;;
13592;SDS011;6867;50.998;4.250;2024-01-30T03:11:19;9.80;;;5.37;;
13592;SDS011;6867;50.998;4.250;2024-01-30T03:13:47;11.43;;;6.43;;
13592;SDS011;6867;50.998;4.250;2024-01-30T03:16:14;12.00;;;6.40;;
13592;SDS011;6867;50.998;4.250;2024-01-30T03:18:41;10.30;;;6.23;;
13592;SDS011;6867;50.998;4.250;2024-01-30T03:21:07;11.70;;;6.67;;
13592;SDS011;6867;50.998;4.250;2024-01-30T03:23:34;10.47;;;6.20;;
13592;SDS011;6867;50.998;4.250;2024-01-30T03:26:01;9.57;;;6.17;;
13592;SDS011;6867;50.998;4.250;2024-01-30T03:28:29;9.87;;;5.80;;
13592;SDS011;6867;50.998;4.250;2024-01-30T03:30:57;12.57;;;6.10;;
13592;SDS011;6867;50.998;4.250;2024-01-30T03:33:24;9.23;;;6.17;;
13592;SDS011;6867;50.998;4.250;2024-01-30T03:35:50;8.27;;;5.70;;
13592;SDS011;6867;50.998;4.250;2024-01-30T03:38:17;10.80;;;6.17;;
13592;SDS011;6867;50.998;4.250;2024-01-30T03:40:45;9.37;;;5.80;;
13592;SDS011;6867;50.998;4.250;2024-01-30T03:43:12;12.60;;;6.50;;
13592;SDS011;6867;50.998;4.250;2024-01-30T03:45:38;11.00;;;6.73;;
13592;SDS011;6867;50.998;4.250;2024-01-30T03:48:09;11.83;;;6.67;;
13592;SDS011;6867;50.998;4.250;2024-01-30T03:50:36;9.20;;;6.03;;
13592;SDS011;6867;50.998;4.250;2024-01-30T03:53:10;10.33;;;6.43;;
13592;SDS011;6867;50.998;4.250;2024-01-30T03:55:39;11.67;;;6.50;;
13592;SDS011;6867;50.998;4.250;2024-01-30T03:58:06;12.03;;;6.00;;
13592;SDS011;6867;50.998;4.250;2024-01-30T04:00:33;13.53;;;6.43;;
13592;SDS011;6867;50.998;4.250;2024-01-30T04:03:00;12.17;;;6.63;;
13592;SDS011;6867;50.998;4.250;2024-01-30T04:05:28;10.27;;;6.73;;
13592;SDS011;6867;50.998;4.250;2024-01-30T04:07:55;8.40;;;5.37;;
13592;SDS011;6867;50.998;4.250;2024-01-30T04:10:22;12.47;;;6.10;;
13592;SDS011;6867;50.998;4.250;2024-01-30T04:12:49;10.10;;;5.77;;
13592;SDS011;6867;50.998;4.250;2024-01-30T04:15:16;9.67;;;6.30;;
13592;SDS011;6867;50.998;4.250;2024-01-30T04:17:43;11.90;;;6.33;;
13592;SDS011;6867;50.998;4.250;2024-01-30T04:20:13;8.07;;;5.80;;
13592;SDS011;6867;50.998;4.250;2024-01-30T04:22:41;9.47;;;5.80;;
13592;SDS011;6867;50.998;4.250;2024-01-30T04:25:09;12.23;;;6.30;;
13592;SDS011;6867;50.998;4.250;2024-01-30T04:27:35;10.20;;;5.83;;
13592;SDS011;6867;50.998;4.250;2024-01-30T04:30:02;8.80;;;5.93;;
13592;SDS011;6867;50.998;4.250;2024-01-30T04:32:32;8.80;;;5.53;;
13592;SDS011;6867;50.998;4.250;2024-01-30T04:34:59;8.93;;;5.07;;
13592;SDS011;6867;50.998;4.250;2024-01-30T04:37:25;8.57;;;5.87;;
13592;SDS011;6867;50.998;4.250;2024-01-30T04:39:54;13.63;;;6.20;;
13592;SDS011;6867;50.998;4.250;2024-01-30T04:42:20;10.37;;;6.10;;
13592;SDS011;6867;50.998;4.250;2024-01-30T04:44:47;10.20;;;6.30;;
13592;SDS011;6867;50.998;4.250;2024-01-30T04:47:14;10.63;;;5.40;;
13592;SDS011;6867;50.998;4.250;2024-01-30T04:49:42;9.40;;;5.70;;
13592;SDS011;6867;50.998;4.250;2024-01-30T04:52:09;10.30;;;6.00;;
13592;SDS011;6867;50.998;4.250;2024-01-30T04:54:39;9.27;;;6.03;;
13592;SDS011;6867;50.998;4.250;2024-01-30T04:57:10;10.50;;;6.03;;
13592;SDS011;6867;50.998;4.250;2024-01-30T04:59:37;11.03;;;5.73;;
13592;SDS011;6867;50.998;4.250;2024-01-30T05:02:04;9.83;;;6.47;;
13592;SDS011;6867;50.998;4.250;2024-01-30T05:04:31;11.17;;;5.97;;
13592;SDS011;6867;50.998;4.250;2024-01-30T05:06:57;8.73;;;5.63;;
13592;SDS011;6867;50.998;4.250;2024-01-30T05:09:24;9.20;;;5.87;;
13592;SDS011;6867;50.998;4.250;2024-01-30T05:11:53;10.93;;;6.40;;
13592;SDS011;6867;50.998;4.250;2024-01-30T05:14:21;11.00;;;6.27;;
13592;SDS011;6867;50.998;4.250;2024-01-30T05:16:47;9.30;;;6.10;;
13592;SDS011;6867;50.998;4.250;2024-01-30T05:19:14;11.17;;;5.50;;
13592;SDS011;6867;50.998;4.250;2024-01-30T05:21:42;11.37;;;6.37;;
13592;SDS011;6867;50.998;4.250;2024-01-30T05:24:12;14.10;;;6.67;;
13592;SDS011;6867;50.998;4.250;2024-01-30T05:26:37;10.17;;;6.83;;
13592;SDS011;6867;50.998;4.250;2024-01-30T05:29:06;12.77;;;6.40;;
13592;SDS011;6867;50.998;4.250;2024-01-30T05:31:34;13.33;;;7.17;;
13592;SDS011;6867;50.998;4.250;2024-01-30T05:34:00;13.87;;;7.07;;
13592;SDS011;6867;50.998;4.250;2024-01-30T05:36:27;17.90;;;7.70;;
13592;SDS011;6867;50.998;4.250;2024-01-30T05:38:55;10.83;;;7.13;;
13592;SDS011;6867;50.998;4.250;2024-01-30T05:41:22;11.43;;;6.97;;
13592;SDS011;6867;50.998;4.250;2024-01-30T05:43:49;9.80;;;6.90;;
13592;SDS011;6867;50.998;4.250;2024-01-30T05:46:19;11.63;;;7.20;;
13592;SDS011;6867;50.998;4.250;2024-01-30T05:48:48;13.30;;;7.13;;
13592;SDS011;6867;50.998;4.250;2024-01-30T05:51:14;13.40;;;7.13;;
13592;SDS011;6867;50.998;4.250;2024-01-30T05:53:41;12.43;;;6.53;;
13592;SDS011;6867;50.998;4.250;2024-01-30T05:56:07;12.83;;;7.17;;
13592;SDS011;6867;50.998;4.250;2024-01-30T05:58:34;15.10;;;7.63;;
13592;SDS011;6867;50.998;4.250;2024-01-30T06:01:02;12.07;;;7.27;;
13592;SDS011;6867;50.998;4.250;2024-01-30T06:03:29;11.43;;;6.43;;
13592;SDS011;6867;50.998;4.250;2024-01-30T06:06:00;11.63;;;7.10;;
13592;SDS011;6867;50.998;4.250;2024-01-30T06:08:30;15.33;;;7.80;;
13592;SDS011;6867;50.998;4.250;2024-01-30T06:10:56;17.67;;;7.33;;
13592;SDS011;6867;50.998;4.250;2024-01-30T06:13:23;12.50;;;7.10;;
13592;SDS011;6867;50.998;4.250;2024-01-30T06:15:49;20.83;;;8.47;;
13592;SDS011;6867;50.998;4.250;2024-01-30T06:18:16;13.67;;;7.60;;
13592;SDS011;6867;50.998;4.250;2024-01-30T06:20:43;13.57;;;6.93;;
13592;SDS011;6867;50.998;4.250;2024-01-30T06:23:11;13.37;;;6.70;;
13592;SDS011;6867;50.998;4.250;2024-01-30T06:25:40;15.50;;;8.20;;
13592;SDS011;6867;50.998;4.250;2024-01-30T06:28:07;13.20;;;7.23;;
13592;SDS011;6867;50.998;4.250;2024-01-30T06:30:33;12.60;;;6.63;;
13592;SDS011;6867;50.998;4.250;2024-01-30T06:33:02;15.40;;;7.60;;
13592;SDS011;6867;50.998;4.250;2024-01-30T06:35:29;17.10;;;8.07;;
13592;SDS011;6867;50.998;4.250;2024-01-30T06:37:55;16.40;;;7.73;;
13592;SDS011;6867;50.998;4.250;2024-01-30T06:40:23;19.27;;;8.27;;
13592;SDS011;6867;50.998;4.250;2024-01-30T06:42:50;15.87;;;7.77;;
13592;SDS011;6867;50.998;4.250;2024-01-30T06:45:17;14.30;;;7.40;;
13592;SDS011;6867;50.998;4.250;2024-01-30T06:47:43;20.80;;;8.83;;
13592;SDS011;6867;50.998;4.250;2024-01-30T06:50:10;13.57;;;7.60;;
13592;SDS011;6867;50.998;4.250;2024-01-30T06:52:40;16.77;;;7.83;;
13592;SDS011;6867;50.998;4.250;2024-01-30T06:55:07;13.53;;;8.33;;
13592;SDS011;6867;50.998;4.250;2024-01-30T06:57:35;18.50;;;7.97;;
13592;SDS011;6867;50.998;4.250;2024-01-30T07:00:02;17.13;;;8.17;;
13592;SDS011;6867;50.998;4.250;2024-01-30T07:02:29;14.10;;;7.60;;
13592;SDS011;6867;50.998;4.250;2024-01-30T07:04:55;17.03;;;8.23;;
13592;SDS011;6867;50.998;4.250;2024-01-30T07:07:22;15.07;;;8.17;;
13592;SDS011;6867;50.998;4.250;2024-01-30T07:09:49;17.30;;;7.87;;
13592;SDS011;6867;50.998;4.250;2024-01-30T07:12:20;15.50;;;8.50;;
13592;SDS011;6867;50.998;4.250;2024-01-30T07:14:48;18.80;;;8.23;;
13592;SDS011;6867;50.998;4.250;2024-01-30T07:17:15;12.57;;;7.47;;
13592;SDS011;6867;50.998;4.250;2024-01-30T07:19:42;14.00;;;7.23;;
13592;SDS011;6867;50.998;4.250;2024-01-30T07:22:09;15.10;;;7.67;;
13592;SDS011;6867;50.998;4.250;2024-01-30T07:24:36;14.33;;;7.93;;
13592;SDS011;6867;50.998;4.250;2024-01-30T07:27:03;15.00;;;7.13;;
13592;SDS011;6867;50.998;4.250;2024-01-30T07:29:30;13.73;;;7.50;;
13592;SDS011;6867;50.998;4.250;2024-01-30T07:31:58;11.77;;;6.40;;
13592;SDS011;6867;50.998;4.250;2024-01-30T07:34:24;11.47;;;6.87;;
13592;SDS011;6867;50.998;4.250;2024-01-30T07:36:52;10.97;;;6.60;;
13592;SDS011;6867;50.998;4.250;2024-01-30T07:39:21;15.30;;;6.70;;
13592;SDS011;6867;50.998;4.250;2024-01-30T07:41:48;11.13;;;6.30;;
13592;SDS011;6867;50.998;4.250;2024-01-30T07:44:15;10.60;;;6.00;;
13592;SDS011;6867;50.998;4.250;2024-01-30T07:46:42;9.90;;;5.87;;
13592;SDS011;6867;50.998;4.250;2024-01-30T07:49:10;9.30;;;6.43;;
13592;SDS011;6867;50.998;4.250;2024-01-30T07:51:36;8.93;;;6.50;;
13592;SDS011;6867;50.998;4.250;2024-01-30T07:54:03;10.53;;;6.77;;
13592;SDS011;6867;50.998;4.250;2024-01-30T07:56:37;9.37;;;6.30;;
13592;SDS011;6867;50.998;4.250;2024-01-30T07:59:04;8.43;;;6.30;;
13592;SDS011;6867;50.998;4.250;2024-01-30T08:01:30;9.03;;;6.07;;
13592;SDS011;6867;50.998;4.250;2024-01-30T08:03:57;10.00;;;6.27;;
13592;SDS011;6867;50.998;4.250;2024-01-30T08:06:25;8.80;;;5.87;;
13592;SDS011;6867;50.998;4.250;2024-01-30T08:08:52;8.07;;;5.73;;
13592;SDS011;6867;50.998;4.250;2024-01-30T08:11:19;11.77;;;6.30;;
13592;SDS011;6867;50.998;4.250;2024-01-30T08:13:50;11.90;;;6.40;;
13592;SDS011;6867;50.998;4.250;2024-01-30T08:16:17;8.63;;;5.93;;
13592;SDS011;6867;50.998;4.250;2024-01-30T08:18:44;11.57;;;6.00;;
13592;SDS011;6867;50.998;4.250;2024-01-30T08:21:11;10.43;;;6.27;;
13592;SDS011;6867;50.998;4.250;2024-01-30T08:23:39;10.53;;;5.93;;
13592;SDS011;6867;50.998;4.250;2024-01-30T08:26:06;7.20;;;6.17;;
13592;SDS011;6867;50.998;4.250;2024-01-30T08:28:33;9.27;;;6.77;;
13592;SDS011;6867;50.998;4.250;2024-01-30T08:31:00;11.93;;;6.73;;
13592;SDS011;6867;50.998;4.250;2024-01-30T08:33:26;8.60;;;6.23;;
13592;SDS011;6867;50.998;4.250;2024-01-30T08:35:53;8.77;;;6.63;;
13592;SDS011;6867;50.998;4.250;2024-01-30T08:38:20;8.10;;;5.73;;
13592;SDS011;6867;50.998;4.250;2024-01-30T08:40:48;9.80;;;6.67;;
13592;SDS011;6867;50.998;4.250;2024-01-30T08:43:15;9.10;;;6.80;;
13592;SDS011;6867;50.998;4.250;2024-01-30T08:45:42;14.20;;;7.07;;
13592;SDS011;6867;50.998;4.250;2024-01-30T08:48:08;14.03;;;6.50;;
13592;SDS011;6867;50.998;4.250;2024-01-30T08:50:35;9.50;;;6.50;;
13592;SDS011;6867;50.998;4.250;2024-01-30T08:53:02;14.10;;;9.27;;
13592;SDS011;6867;50.998;4.250;2024-01-30T08:55:29;11.53;;;6.73;;
13592;SDS011;6867;50.998;4.250;2024-01-30T08:58:00;11.77;;;6.77;;
13592;SDS011;6867;50.998;4.250;2024-01-30T09:00:28;9.90;;;6.27;;
13592;SDS011;6867;50.998;4.250;2024-01-30T09:02:55;9.23;;;6.93;;
13592;SDS011;6867;50.998;4.250;2024-01-30T09:05:22;10.43;;;6.67;;
13592;SDS011;6867;50.998;4.250;2024-01-30T09:07:48;12.83;;;7.23;;
13592;SDS011;6867;50.998;4.250;2024-01-30T09:10:15;9.13;;;6.23;;
13592;SDS011;6867;50.998;4.250;2024-01-30T09:12:42;12.03;;;6.83;;
13592;SDS011;6867;50.998;4.250;2024-01-30T09:15:10;10.33;;;6.43;;
13592;SDS011;6867;50.998;4.250;2024-01-30T09:17:37;8.30;;;6.10;;
13592;SDS011;6867;50.998;4.250;2024-01-30T09:20:04;11.40;;;7.00;;
13592;SDS011;6867;50.998;4.250;2024-01-30T09:22:32;13.17;;;7.20;;
13592;SDS011;6867;50.998;4.250;2024-01-30T09:24:58;9.97;;;6.80;;
13592;SDS011;6867;50.998;4.250;2024-01-30T09:27:25;10.47;;;7.17;;
13592;SDS011;6867;50.998;4.250;2024-01-30T09:29:52;11.97;;;8.23;;
13592;SDS011;6867;50.998;4.250;2024-01-30T09:32:20;13.80;;;7.77;;
13592;SDS011;6867;50.998;4.250;2024-01-30T09:34:46;10.67;;;7.27;;
13592;SDS011;6867;50.998;4.250;2024-01-30T09:37:13;10.97;;;7.53;;
13592;SDS011;6867;50.998;4.250;2024-01-30T09:39:43;11.23;;;7.03;;
13592;SDS011;6867;50.998;4.250;2024-01-30T09:42:11;13.80;;;7.57;;
13592;SDS011;6867;50.998;4.250;2024-01-30T09:44:44;12.40;;;7.50;;
13592;SDS011;6867;50.998;4.250;2024-01-30T09:47:13;10.87;;;7.40;;
13592;SDS011;6867;50.998;4.250;2024-01-30T09:49:44;9.93;;;6.93;;
13592;SDS011;6867;50.998;4.250;2024-01-30T09:52:11;10.98;;;7.30;;
13592;SDS011;6867;50.998;4.250;2024-01-30T09:54:38;10.23;;;6.77;;
13592;SDS011;6867;50.998;4.250;2024-01-30T09:57:07;12.80;;;6.70;;
13592;SDS011;6867;50.998;4.250;2024-01-30T09:59:34;10.57;;;6.47;;
13592;SDS011;6867;50.998;4.250;2024-01-30T10:02:01;11.23;;;6.40;;
13592;SDS011;6867;50.998;4.250;2024-01-30T10:04:29;8.93;;;6.03;;
13592;SDS011;6867;50.998;4.250;2024-01-30T10:06:57;8.13;;;5.77;;
13592;SDS011;6867;50.998;4.250;2024-01-30T10:09:26;17.75;;;6.13;;
13592;SDS011;6867;50.998;4.250;2024-01-30T10:11:52;12.50;;;6.32;;
13592;SDS011;6867;50.998;4.250;2024-01-30T10:14:19;14.88;;;6.20;;
13592;SDS011;6867;50.998;4.250;2024-01-30T10:16:46;13.47;;;6.07;;
13592;SDS011;6867;50.998;4.250;2024-01-30T10:19:13;10.52;;;6.30;;
13592;SDS011;6867;50.998;4.250;2024-01-30T10:21:40;8.32;;;5.40;;
13592;SDS011;6867;50.998;4.250;2024-01-30T10:24:08;8.65;;;5.78;;
13592;SDS011;6867;50.998;4.250;2024-01-30T10:26:37;8.00;;;5.22;;
13592;SDS011;6867;50.998;4.250;2024-01-30T10:29:04;8.43;;;4.93;;
13592;SDS011;6867;50.998;4.250;2024-01-30T10:31:31;7.53;;;4.28;;
13592;SDS011;6867;50.998;4.250;2024-01-30T10:33:58;8.93;;;4.03;;
13592;SDS011;6867;50.998;4.250;2024-01-30T10:36:28;6.20;;;3.38;;
13592;SDS011;6867;50.998;4.250;2024-01-30T10:38:55;7.57;;;3.80;;
13592;SDS011;6867;50.998;4.250;2024-01-30T10:41:27;8.05;;;3.35;;
13592;SDS011;6867;50.998;4.250;2024-01-30T10:43:58;8.10;;;3.57;;
13592;SDS011;6867;50.998;4.250;2024-01-30T10:46:30;5.80;;;2.80;;
13592;SDS011;6867;50.998;4.250;2024-01-30T10:48:59;5.60;;;2.23;;
13592;SDS011;6867;50.998;4.250;2024-01-30T10:51:27;4.97;;;1.70;;
13592;SDS011;6867;50.998;4.250;2024-01-30T10:53:54;4.47;;;1.80;;
13592;SDS011;6867;50.998;4.250;2024-01-30T10:56:22;5.20;;;1.40;;
13592;SDS011;6867;50.998;4.250;2024-01-30T10:58:51;2.97;;;0.93;;
13592;SDS011;6867;50.998;4.250;2024-01-30T11:01:19;2.67;;;1.30;;
13592;SDS011;6867;50.998;4.250;2024-01-30T11:03:48;2.43;;;1.17;;
13592;SDS011;6867;50.998;4.250;2024-01-30T11:06:15;2.23;;;1.00;;
13592;SDS011;6867;50.998;4.250;2024-01-30T11:08:43;2.97;;;0.80;;
13592;SDS011;6867;50.998;4.250;2024-01-30T11:11:11;4.67;;;1.20;;
13592;SDS011;6867;50.998;4.250;2024-01-30T11:13:38;3.23;;;1.90;;
13592;SDS011;6867;50.998;4.250;2024-01-30T11:16:07;2.13;;;0.93;;
13592;SDS011;6867;50.998;4.250;2024-01-30T11:18:39;3.00;;;0.88;;
13592;SDS011;6867;50.998;4.250;2024-01-30T11:21:06;4.40;;;0.87;;
13592;SDS011;6867;50.998;4.250;2024-01-30T11:23:33;1.70;;;0.97;;
13592;SDS011;6867;50.998;4.250;2024-01-30T11:26:00;4.80;;;0.90;;
13592;SDS011;6867;50.998;4.250;2024-01-30T11:28:31;1.43;;;0.83;;
13592;SDS011;6867;50.998;4.250;2024-01-30T11:31:02;1.90;;;0.70;;
13592;SDS011;6867;50.998;4.250;2024-01-30T11:33:31;2.57;;;1.20;;
13592;SDS011;6867;50.998;4.250;2024-01-30T11:35:58;3.60;;;1.00;;
13592;SDS011;6867;50.998;4.250;2024-01-30T11:38:26;2.93;;;0.90;;
13592;SDS011;6867;50.998;4.250;2024-01-30T11:40:54;2.40;;;0.67;;
13592;SDS011;6867;50.998;4.250;2024-01-30T11:43:21;1.97;;;0.60;;
13592;SDS011;6867;50.998;4.250;2024-01-30T11:45:48;1.90;;;0.70;;
13592;SDS011;6867;50.998;4.250;2024-01-30T11:48:15;1.70;;;0.77;;
13592;SDS011;6867;50.998;4.250;2024-01-30T11:50:44;4.50;;;1.13;;
13592;SDS011;6867;50.998;4.250;2024-01-30T11:53:11;3.00;;;0.97;;
13592;SDS011;6867;50.998;4.250;2024-01-30T11:55:37;2.40;;;1.20;;
13592;SDS011;6867;50.998;4.250;2024-01-30T11:58:04;4.80;;;1.13;;
13592;SDS011;6867;50.998;4.250;2024-01-30T12:00:31;8.03;;;1.27;;
13592;SDS011;6867;50.998;4.250;2024-01-30T12:02:58;3.37;;;1.57;;
13592;SDS011;6867;50.998;4.250;2024-01-30T12:05:25;2.33;;;0.80;;
13592;SDS011;6867;50.998;4.250;2024-01-30T12:07:54;1.58;;;0.63;;
13592;SDS011;6867;50.998;4.250;2024-01-30T12:10:24;4.97;;;1.13;;
13592;SDS011;6867;50.998;4.250;2024-01-30T12:12:50;1.63;;;0.85;;
13592;SDS011;6867;50.998;4.250;2024-01-30T12:15:19;2.70;;;1.08;;
13592;SDS011;6867;50.998;4.250;2024-01-30T12:17:47;4.23;;;0.70;;
13592;SDS011;6867;50.998;4.250;2024-01-30T12:20:14;4.43;;;1.13;;
13592;SDS011;6867;50.998;4.250;2024-01-30T12:22:44;2.80;;;0.63;;
13592;SDS011;6867;50.998;4.250;2024-01-30T12:25:13;3.35;;;0.80;;
13592;SDS011;6867;50.998;4.250;2024-01-30T12:27:42;1.23;;;0.63;;
13592;SDS011;6867;50.998;4.250;2024-01-30T12:30:10;2.47;;;1.02;;
13592;SDS011;6867;50.998;4.250;2024-01-30T12:32:39;1.47;;;0.80;;
13592;SDS011;6867;50.998;4.250;2024-01-30T12:35:09;3.43;;;0.73;;
13592;SDS011;6867;50.998;4.250;2024-01-30T12:37:36;5.43;;;0.87;;
13592;SDS011;6867;50.998;4.250;2024-01-30T12:40:03;4.93;;;1.05;;
13592;SDS011;6867;50.998;4.250;2024-01-30T12:42:32;2.47;;;0.73;;
13592;SDS011;6867;50.998;4.250;2024-01-30T12:44:59;1.63;;;0.90;;
13592;SDS011;6867;50.998;4.250;2024-01-30T12:47:26;1.87;;;1.00;;
13592;SDS011;6867;50.998;4.250;2024-01-30T12:49:53;3.70;;;2.00;;
13592;SDS011;6867;50.998;4.250;2024-01-30T12:52:20;2.40;;;1.50;;
13592;SDS011;6867;50.998;4.250;2024-01-30T12:54:47;2.77;;;1.13;;
13592;SDS011;6867;50.998;4.250;2024-01-30T12:57:14;2.73;;;0.80;;
13592;SDS011;6867;50.998;4.250;2024-01-30T12:59:41;3.13;;;1.13;;
13592;SDS011;6867;50.998;4.250;2024-01-30T13:02:08;2.60;;;0.90;;
13592;SDS011;6867;50.998;4.250;2024-01-30T13:04:35;3.13;;;0.80;;
13592;SDS011;6867;50.998;4.250;2024-01-30T13:07:02;7.57;;;1.20;;
13592;SDS011;6867;50.998;4.250;2024-01-30T13:09:29;3.70;;;1.03;;
13592;SDS011;6867;50.998;4.250;2024-01-30T13:11:56;3.70;;;1.30;;
13592;SDS011;6867;50.998;4.250;2024-01-30T13:14:23;3.83;;;1.57;;
13592;SDS011;6867;50.998;4.250;2024-01-30T13:16:51;3.27;;;1.00;;
13592;SDS011;6867;50.998;4.250;2024-01-30T13:19:18;2.80;;;1.30;;
13592;SDS011;6867;50.998;4.250;2024-01-30T13:21:45;3.03;;;1.40;;
13592;SDS011;6867;50.998;4.250;2024-01-30T13:24:12;4.40;;;1.10;;
13592;SDS011;6867;50.998;4.250;2024-01-30T13:26:40;2.60;;;1.20;;
13592;SDS011;6867;50.998;4.250;2024-01-30T13:29:08;4.43;;;1.30;;
13592;SDS011;6867;50.998;4.250;2024-01-30T13:31:35;5.30;;;1.63;;
13592;SDS011;6867;50.998;4.250;2024-01-30T13:34:03;1.53;;;0.90;;
13592;SDS011;6867;50.998;4.250;2024-01-30T13:36:30;3.43;;;1.20;;
13592;SDS011;6867;50.998;4.250;2024-01-30T13:38:57;5.43;;;1.33;;
13592;SDS011;6867;50.998;4.250;2024-01-30T13:41:23;6.20;;;1.07;;
13592;SDS011;6867;50.998;4.250;2024-01-30T13:43:50;3.20;;;1.10;;
13592;SDS011;6867;50.998;4.250;2024-01-30T13:46:17;3.90;;;1.30;;
13592;SDS011;6867;50.998;4.250;2024-01-30T13:48:43;4.93;;;1.13;;
13592;SDS011;6867;50.998;4.250;2024-01-30T13:51:11;3.53;;;1.10;;
13592;SDS011;6867;50.998;4.250;2024-01-30T13:53:38;2.33;;;0.80;;
13592;SDS011;6867;50.998;4.250;2024-01-30T13:56:05;1.93;;;1.10;;
13592;SDS011;6867;50.998;4.250;2024-01-30T13:58:33;1.47;;;0.87;;
13592;SDS011;6867;50.998;4.250;2024-01-30T14:01:01;1.70;;;0.70;;
13592;SDS011;6867;50.998;4.250;2024-01-30T14:03:28;2.73;;;1.00;;
13592;SDS011;6867;50.998;4.250;2024-01-30T14:05:55;3.20;;;1.00;;
13592;SDS011;6867;50.998;4.250;2024-01-30T14:08:23;2.63;;;0.90;;
13592;SDS011;6867;50.998;4.250;2024-01-30T14:10:53;1.57;;;0.90;;
13592;SDS011;6867;50.998;4.250;2024-01-30T14:13:19;1.73;;;1.03;;
13592;SDS011;6867;50.998;4.250;2024-01-30T14:15:47;0.97;;;0.77;;
13592;SDS011;6867;50.998;4.250;2024-01-30T14:18:14;3.53;;;1.00;;
13592;SDS011;6867;50.998;4.250;2024-01-30T14:20:41;3.73;;;1.03;;
13592;SDS011;6867;50.998;4.250;2024-01-30T14:23:08;3.60;;;1.50;;
13592;SDS011;6867;50.998;4.250;2024-01-30T14:25:36;2.20;;;1.07;;
13592;SDS011;6867;50.998;4.250;2024-01-30T14:28:03;2.50;;;1.20;;
13592;SDS011;6867;50.998;4.250;2024-01-30T14:30:30;3.27;;;1.40;;
13592;SDS011;6867;50.998;4.250;2024-01-30T14:32:57;5.77;;;1.23;;
13592;SDS011;6867;50.998;4.250;2024-01-30T14:35:23;2.60;;;1.33;;
13592;SDS011;6867;50.998;4.250;2024-01-30T14:37:50;2.20;;;0.90;;
13592;SDS011;6867;50.998;4.250;2024-01-30T14:40:17;3.47;;;1.20;;
13592;SDS011;6867;50.998;4.250;2024-01-30T14:42:45;2.13;;;1.10;;
13592;SDS011;6867;50.998;4.250;2024-01-30T14:45:12;3.80;;;1.50;;
13592;SDS011;6867;50.998;4.250;2024-01-30T14:47:39;3.53;;;1.20;;
13592;SDS011;6867;50.998;4.250;2024-01-30T14:50:06;4.37;;;1.33;;
13592;SDS011;6867;50.998;4.250;2024-01-30T14:52:33;2.90;;;1.20;;
13592;SDS011;6867;50.998;4.250;2024-01-30T14:55:00;4.23;;;1.27;;
13592;SDS011;6867;50.998;4.250;2024-01-30T14:57:27;3.33;;;1.00;;